createdAt,value
2018-10-21T00:00:17.538Z,100.00
2018-10-21T00:03:21.881Z,100.00
2018-10-21T00:06:27.073Z,100.00
2018-10-21T00:09:31.379Z,100.00
2018-10-21T00:12:35.891Z,100.00
2018-10-21T00:15:40.287Z,100.00
2018-10-21T00:18:44.828Z,100.00
2018-10-21T00:21:49.228Z,100.00
2018-10-21T00:24:53.668Z,100.00
2018-10-21T00:27:58.011Z,100.00
2018-10-21T00:31:02.345Z,100.00
2018-10-21T00:34:06.667Z,100.00
2018-10-21T00:37:11.016Z,100.00
2018-10-21T00:40:15.333Z,100.00
2018-10-21T00:43:19.675Z,100.00
2018-10-21T00:46:24.109Z,100.00
2018-10-21T00:49:28.457Z,100.00
2018-10-21T00:52:32.838Z,100.00
2018-10-21T00:55:37.176Z,100.00
2018-10-21T00:58:41.491Z,100.00
2018-10-21T01:01:45.847Z,100.00
2018-10-21T01:04:50.304Z,100.00
2018-10-21T01:07:54.861Z,100.00
2018-10-21T01:10:59.195Z,100.00
2018-10-21T01:14:03.570Z,100.00
2018-10-21T01:17:07.943Z,100.00
2018-10-21T01:20:13.093Z,100.00
2018-10-21T01:23:17.421Z,100.00
2018-10-21T01:26:21.793Z,100.00
2018-10-21T01:29:26.198Z,100.00
2018-10-21T01:32:30.564Z,100.00
2018-10-21T01:35:34.953Z,100.00
2018-10-21T01:38:39.272Z,100.00
2018-10-21T01:41:43.577Z,100.00
2018-10-21T01:44:47.893Z,100.00
2018-10-21T01:47:52.211Z,100.00
2018-10-21T01:50:56.614Z,100.00
2018-10-21T01:54:00.891Z,100.00
2018-10-21T01:57:05.376Z,100.00
2018-10-21T02:00:17.459Z,100.00
2018-10-21T02:03:21.757Z,100.00
2018-10-21T02:06:26.076Z,100.00
2018-10-21T02:09:30.386Z,100.00
2018-10-21T02:12:34.720Z,100.00
2018-10-21T02:15:39.016Z,100.00
2018-10-21T02:18:43.315Z,100.00
2018-10-21T02:21:47.612Z,100.00
2018-10-21T02:24:51.956Z,100.00
2018-10-21T02:27:56.255Z,100.00
2018-10-21T02:31:00.647Z,100.00
2018-10-21T02:34:04.972Z,100.00
2018-10-21T02:37:09.313Z,100.00
2018-10-21T02:41:32.800Z,100.00
2018-10-21T02:44:37.091Z,100.00
2018-10-21T02:47:41.372Z,100.00
2018-10-21T02:50:45.659Z,100.00
2018-10-21T02:53:49.961Z,100.00
2018-10-21T02:56:54.430Z,100.00
2018-10-21T02:59:58.703Z,100.00
2018-10-21T03:03:03.049Z,100.00
2018-10-21T03:06:07.670Z,100.00
2018-10-21T03:09:12.231Z,100.00
2018-10-21T03:12:16.573Z,100.00
2018-10-21T03:15:20.964Z,100.00
2018-10-21T03:18:25.283Z,100.00
2018-10-21T03:21:29.566Z,100.00
2018-10-21T03:24:33.852Z,100.00
2018-10-21T03:27:38.134Z,100.00
2018-10-21T03:30:42.444Z,100.00
2018-10-21T03:33:46.836Z,100.00
2018-10-21T03:36:51.020Z,100.00
2018-10-21T03:39:55.521Z,100.00
2018-10-21T03:42:59.824Z,100.00
2018-10-21T03:46:04.183Z,100.00
2018-10-21T03:49:08.628Z,100.00
2018-10-21T03:52:13.451Z,100.00
2018-10-21T03:55:17.792Z,100.00
2018-10-21T03:58:23.056Z,100.00
2018-10-21T04:01:27.504Z,100.00
2018-10-21T04:04:32.158Z,100.00
2018-10-21T04:07:36.656Z,100.00
2018-10-21T04:10:41.072Z,100.00
2018-10-21T04:13:46.092Z,100.00
2018-10-21T04:16:50.199Z,100.00
2018-10-21T04:19:54.507Z,100.00
2018-10-21T04:22:59.952Z,100.00
2018-10-21T04:26:04.306Z,100.00
2018-10-21T04:29:08.724Z,100.00
2018-10-21T04:32:13.079Z,100.00
2018-10-21T04:35:18.269Z,100.00
2018-10-21T04:38:39.701Z,100.00
2018-10-21T04:41:44.216Z,100.00
2018-10-21T04:44:49.304Z,100.00
2018-10-21T04:47:54.305Z,100.00
2018-10-21T04:50:59.081Z,100.00
2018-10-21T04:54:03.409Z,100.00
2018-10-21T04:57:08.525Z,100.00
2018-10-21T05:00:17.025Z,100.00
2018-10-21T05:03:21.638Z,100.00
2018-10-21T05:06:26.488Z,100.00
2018-10-21T05:09:32.103Z,100.00
2018-10-21T05:12:36.713Z,100.00
2018-10-21T05:15:41.170Z,100.00
2018-10-21T05:18:45.464Z,100.00
2018-10-21T05:21:50.194Z,100.00
2018-10-21T05:24:54.549Z,100.00
2018-10-21T05:27:59.048Z,100.00
2018-10-21T05:31:03.439Z,100.00
2018-10-21T05:34:07.847Z,100.00
2018-10-21T05:37:12.180Z,100.00
2018-10-21T05:40:18.796Z,100.00
2018-10-21T05:43:23.112Z,100.00
2018-10-21T05:46:42.240Z,100.00
2018-10-21T05:49:47.533Z,100.00
2018-10-21T05:52:51.985Z,100.00
2018-10-21T05:55:57.617Z,100.00
2018-10-21T05:59:02.005Z,100.00
2018-10-21T06:02:06.665Z,100.00
2018-10-21T06:05:35.088Z,100.00
2018-10-21T06:08:39.821Z,100.00
2018-10-21T06:11:44.247Z,100.00
2018-10-21T06:14:49.463Z,100.00
2018-10-21T06:17:53.917Z,100.00
2018-10-21T06:21:04.032Z,100.00
2018-10-21T06:24:12.676Z,100.00
2018-10-21T06:27:17.924Z,100.00
2018-10-21T06:30:25.882Z,100.00
2018-10-21T06:33:30.330Z,100.00
2018-10-21T06:36:34.799Z,100.00
2018-10-21T06:39:39.075Z,100.00
2018-10-21T06:42:44.225Z,100.00
2018-10-21T06:45:49.133Z,100.00
2018-10-21T06:48:53.455Z,100.00
2018-10-21T06:51:58.343Z,100.00
2018-10-21T06:55:02.747Z,100.00
2018-10-21T06:58:07.330Z,100.00
2018-10-21T07:01:11.849Z,100.00
2018-10-21T07:04:16.707Z,100.00
2018-10-21T07:07:21.004Z,100.00
2018-10-21T07:10:25.373Z,100.00
2018-10-21T07:13:29.673Z,99.62
2018-10-21T07:16:34.805Z,99.82
2018-10-21T07:19:38.914Z,98.40
2018-10-21T07:22:44.941Z,96.82
2018-10-21T07:25:49.384Z,94.72
2018-10-21T07:28:53.894Z,95.05
2018-10-21T07:31:59.774Z,93.55
2018-10-21T07:35:05.465Z,90.77
2018-10-21T07:38:09.900Z,89.90
2018-10-21T07:41:14.673Z,89.65
2018-10-21T07:44:19.081Z,88.54
2018-10-21T07:47:23.639Z,88.35
2018-10-21T07:50:28.156Z,88.95
2018-10-21T07:53:32.757Z,88.16
2018-10-21T07:56:37.238Z,87.89
2018-10-21T07:59:41.741Z,88.26
2018-10-21T08:02:46.214Z,89.17
2018-10-21T08:06:18.728Z,89.61
2018-10-21T08:09:23.456Z,89.75
2018-10-21T08:12:28.080Z,91.37
2018-10-21T08:15:32.561Z,92.17
2018-10-21T08:18:37.585Z,91.33
2018-10-21T08:21:43.679Z,90.63
2018-10-21T08:24:48.145Z,88.36
2018-10-21T08:27:52.612Z,89.19
2018-10-21T08:30:57.093Z,86.87
2018-10-21T08:34:01.525Z,86.22
2018-10-21T08:37:06.354Z,86.02
2018-10-21T08:40:10.817Z,85.07
2018-10-21T08:43:15.159Z,84.48
2018-10-21T08:46:19.716Z,86.32
2018-10-21T08:49:24.074Z,85.05
2018-10-21T08:52:28.693Z,85.51
2018-10-21T08:55:33.701Z,84.45
2018-10-21T08:58:38.192Z,83.09
2018-10-21T09:01:42.622Z,82.38
2018-10-21T09:04:48.155Z,80.88
2018-10-21T09:07:52.508Z,77.85
2018-10-21T09:10:57.425Z,78.22
2018-10-21T09:14:01.908Z,76.81
2018-10-21T09:17:09.158Z,75.69
2018-10-21T09:20:16.289Z,77.77
2018-10-21T09:23:20.889Z,75.37
2018-10-21T09:26:25.422Z,74.56
2018-10-21T09:29:29.876Z,74.64
2018-10-21T09:32:34.374Z,75.61
2018-10-21T09:35:39.566Z,72.61
2018-10-21T09:38:43.906Z,71.83
2018-10-21T09:41:48.505Z,71.35
2018-10-21T09:44:53.625Z,70.26
2018-10-21T09:47:58.065Z,72.04
2018-10-21T09:54:33.525Z,73.72
2018-10-21T09:57:38.079Z,72.97
2018-10-21T10:00:47.890Z,71.34
2018-10-21T10:03:52.295Z,72.19
2018-10-21T10:06:56.843Z,68.81
2018-10-21T10:10:01.412Z,71.87
2018-10-21T10:13:06.468Z,69.55
2018-10-21T10:16:11.700Z,65.90
2018-10-21T10:19:17.051Z,65.94
2018-10-21T10:22:21.478Z,63.20
2018-10-21T10:25:26.256Z,60.63
2018-10-21T10:28:30.925Z,57.35
2018-10-21T10:31:35.294Z,54.18
2018-10-21T10:34:40.032Z,52.78
2018-10-21T10:37:44.497Z,59.18
2018-10-21T10:40:49.001Z,60.90
2018-10-21T10:43:53.518Z,61.44
2018-10-21T10:46:58.120Z,60.92
2018-10-21T10:50:02.469Z,62.73
2018-10-21T10:53:06.932Z,61.38
2018-10-21T10:56:11.416Z,61.39
2018-10-21T10:59:15.735Z,61.81
2018-10-21T11:02:20.127Z,58.98
2018-10-21T11:05:24.482Z,58.97
2018-10-21T11:08:28.760Z,58.18
2018-10-21T11:11:33.085Z,56.94
2018-10-21T11:14:37.423Z,56.03
2018-10-21T11:17:41.665Z,56.43
2018-10-21T11:20:46.013Z,56.49
2018-10-21T11:23:50.429Z,56.24
2018-10-21T11:26:54.722Z,56.43
2018-10-21T11:29:59.140Z,55.57
2018-10-21T11:33:03.594Z,54.73
2018-10-21T11:36:07.920Z,55.84
2018-10-21T11:39:12.295Z,55.26
2018-10-21T11:42:16.552Z,52.49
2018-10-21T11:45:21.138Z,54.56
2018-10-21T11:48:25.548Z,54.89
2018-10-21T11:51:29.924Z,56.79
2018-10-21T11:54:36.224Z,55.17
2018-10-21T11:57:40.681Z,53.08
2018-10-21T12:00:45.993Z,52.18
2018-10-21T12:03:50.375Z,52.42
2018-10-21T12:06:54.806Z,52.26
2018-10-21T12:09:59.250Z,52.18
2018-10-21T12:13:03.631Z,52.45
2018-10-21T12:16:07.998Z,52.07
2018-10-21T12:19:12.499Z,51.99
2018-10-21T12:22:16.872Z,52.47
2018-10-21T12:25:21.174Z,51.65
2018-10-21T12:28:25.427Z,52.79
2018-10-21T12:31:29.911Z,54.36
2018-10-21T12:34:34.309Z,54.67
2018-10-21T12:37:38.717Z,55.51
2018-10-21T12:40:43.047Z,54.86
2018-10-21T12:43:47.524Z,52.95
2018-10-21T12:46:51.842Z,54.13
2018-10-21T12:49:56.200Z,55.83
2018-10-21T12:53:00.726Z,56.34
2018-10-21T12:56:05.173Z,57.59
2018-10-21T12:59:09.560Z,58.36
2018-10-21T13:02:13.978Z,59.60
2018-10-21T13:05:18.314Z,61.02
2018-10-21T13:08:22.633Z,61.51
2018-10-21T13:11:27.020Z,62.93
2018-10-21T13:14:31.320Z,61.84
2018-10-21T13:17:35.686Z,61.97
2018-10-21T13:20:40.005Z,60.43
2018-10-21T13:23:44.300Z,58.90
2018-10-21T13:26:48.593Z,58.44
2018-10-21T13:29:52.856Z,56.35
2018-10-21T13:32:57.302Z,54.47
2018-10-21T13:36:01.756Z,54.49
2018-10-21T13:39:10.409Z,54.08
2018-10-21T13:42:14.810Z,55.09
2018-10-21T13:45:19.272Z,54.37
2018-10-21T13:48:23.637Z,54.89
2018-10-21T13:51:28.149Z,55.31
2018-10-21T13:54:32.451Z,55.12
2018-10-21T13:57:36.900Z,55.38
2018-10-21T14:00:41.392Z,54.94
2018-10-21T14:03:45.807Z,53.49
2018-10-21T14:06:50.207Z,53.87
2018-10-21T14:09:54.573Z,53.60
2018-10-21T14:12:58.985Z,54.61
2018-10-21T14:16:03.377Z,55.41
2018-10-21T14:19:08.243Z,55.56
2018-10-21T14:22:12.719Z,54.50
2018-10-21T14:25:17.020Z,55.29
2018-10-21T14:28:21.353Z,55.62
2018-10-21T14:31:25.727Z,54.27
2018-10-21T14:34:30.128Z,55.51
2018-10-21T14:37:34.606Z,55.10
2018-10-21T14:40:38.948Z,56.17
2018-10-21T14:43:43.476Z,55.55
2018-10-21T14:46:47.790Z,56.19
2018-10-21T14:49:52.203Z,57.18
2018-10-21T14:52:56.572Z,56.33
2018-10-21T14:59:16.336Z,57.45
2018-10-21T15:02:20.664Z,56.80
2018-10-21T15:05:24.957Z,56.48
2018-10-21T15:08:29.462Z,57.28
2018-10-21T15:11:34.408Z,57.53
2018-10-21T15:14:39.175Z,57.44
2018-10-21T15:17:44.027Z,58.18
2018-10-21T15:20:49.003Z,57.43
2018-10-21T15:23:53.892Z,56.84
2018-10-21T15:26:58.900Z,58.08
2018-10-21T15:30:03.295Z,58.45
2018-10-21T15:36:06.711Z,59.07
2018-10-21T15:39:11.536Z,60.36
2018-10-21T15:42:15.937Z,61.92
2018-10-21T15:45:20.603Z,63.43
2018-10-21T15:48:25.172Z,64.51
2018-10-21T15:51:29.688Z,64.24
2018-10-21T15:54:34.338Z,64.98
2018-10-21T15:57:38.671Z,65.35
2018-10-21T16:00:43.943Z,66.55
2018-10-21T16:03:48.849Z,67.42
2018-10-21T16:06:53.185Z,67.13
2018-10-21T16:09:57.700Z,66.98
2018-10-21T16:13:02.345Z,66.88
2018-10-21T16:16:07.208Z,67.17
2018-10-21T16:19:11.580Z,68.08
2018-10-21T16:22:16.003Z,68.96
2018-10-21T16:25:20.323Z,68.64
2018-10-21T16:28:24.713Z,71.46
2018-10-21T16:31:29.065Z,70.79
2018-10-21T16:34:33.529Z,73.44
2018-10-21T16:37:38.349Z,72.76
2018-10-21T16:40:43.382Z,73.29
2018-10-21T16:43:47.992Z,72.30
2018-10-21T16:46:52.347Z,73.30
2018-10-21T16:49:56.814Z,73.22
2018-10-21T16:53:01.227Z,73.31
2018-10-21T16:56:05.965Z,74.39
2018-10-21T16:59:10.460Z,74.31
2018-10-21T17:02:14.970Z,75.91
2018-10-21T17:05:19.265Z,77.79
2018-10-21T17:08:23.595Z,78.91
2018-10-21T17:11:28.021Z,79.72
2018-10-21T17:14:32.361Z,80.67
2018-10-21T17:17:36.736Z,80.18
2018-10-21T17:20:41.064Z,79.92
2018-10-21T17:23:45.462Z,80.95
2018-10-21T17:26:49.812Z,82.56
2018-10-21T17:29:54.172Z,83.11
2018-10-21T17:32:58.518Z,84.25
2018-10-21T17:36:02.920Z,84.89
2018-10-21T17:39:12.444Z,84.75
2018-10-21T17:42:16.761Z,85.26
2018-10-21T17:45:21.047Z,86.19
2018-10-21T17:48:25.391Z,86.50
2018-10-21T17:51:29.695Z,87.33
2018-10-21T17:54:33.985Z,87.96
2018-10-21T17:57:38.418Z,87.49
2018-10-21T18:00:42.744Z,87.30
2018-10-21T18:03:47.121Z,87.38
2018-10-21T18:06:51.735Z,87.88
2018-10-21T18:09:56.066Z,87.76
2018-10-21T18:13:00.433Z,88.73
2018-10-21T18:16:04.839Z,88.96
2018-10-21T18:19:09.302Z,89.19
2018-10-21T18:22:13.602Z,89.68
2018-10-21T18:25:18.139Z,90.11
2018-10-21T18:28:22.369Z,90.08
2018-10-21T18:31:26.795Z,89.30
2018-10-21T18:34:31.155Z,89.52
2018-10-21T18:37:35.521Z,89.93
2018-10-21T18:40:39.959Z,90.05
2018-10-21T18:43:44.240Z,89.10
2018-10-21T18:46:48.680Z,87.87
2018-10-21T18:49:53.093Z,87.78
2018-10-21T18:52:57.481Z,87.16
2018-10-21T18:56:01.793Z,86.50
2018-10-21T18:59:06.139Z,85.86
2018-10-21T19:02:10.475Z,87.05
2018-10-21T19:08:12.537Z,87.39
2018-10-21T19:11:17.044Z,87.83
2018-10-21T19:14:21.388Z,87.69
2018-10-21T19:17:25.685Z,87.31
2018-10-21T19:20:30.060Z,87.50
2018-10-21T19:23:34.335Z,86.89
2018-10-21T19:26:38.949Z,86.19
2018-10-21T19:29:43.269Z,86.38
2018-10-21T19:32:47.672Z,86.83
2018-10-21T19:35:52.120Z,85.95
2018-10-21T19:38:56.428Z,87.17
2018-10-21T19:42:00.820Z,87.53
2018-10-21T19:45:05.853Z,88.08
2018-10-21T19:48:10.264Z,88.35
2018-10-21T19:51:14.611Z,88.69
2018-10-21T19:54:19.384Z,88.37
2018-10-21T19:57:23.974Z,88.76
2018-10-21T20:00:28.312Z,89.66
2018-10-21T20:03:32.612Z,90.72
2018-10-21T20:06:37.013Z,90.42
2018-10-21T20:09:41.329Z,90.80
2018-10-21T20:12:45.647Z,92.07
2018-10-21T20:15:50.001Z,92.55
2018-10-21T20:18:54.517Z,92.17
2018-10-21T20:21:58.862Z,92.69
2018-10-21T20:25:03.336Z,93.02
2018-10-21T20:28:07.887Z,92.92
2018-10-21T20:31:12.431Z,92.38
2018-10-21T20:34:16.774Z,92.39
2018-10-21T20:37:21.085Z,92.10
2018-10-21T20:40:25.509Z,91.92
2018-10-21T20:43:29.868Z,91.52
2018-10-21T20:46:34.216Z,91.74
2018-10-21T20:49:39.106Z,92.08
2018-10-21T20:52:43.462Z,91.43
2018-10-21T20:55:47.748Z,92.35
2018-10-21T20:58:52.258Z,93.13
2018-10-21T21:01:56.649Z,93.38
2018-10-21T21:05:00.968Z,93.42
2018-10-21T21:08:05.315Z,93.56
2018-10-21T21:11:10.491Z,93.56
2018-10-21T21:14:14.841Z,94.07
2018-10-21T21:17:19.192Z,94.81
2018-10-21T21:20:23.727Z,94.43
2018-10-21T21:23:28.135Z,94.59
2018-10-21T21:26:32.687Z,94.90
2018-10-21T21:29:37.338Z,95.26
2018-10-21T21:32:42.533Z,96.32
2018-10-21T21:35:47.017Z,96.12
2018-10-21T21:38:51.623Z,95.84
2018-10-21T21:41:56.158Z,95.93
2018-10-21T21:45:00.442Z,95.92
2018-10-21T21:48:05.180Z,96.11
2018-10-21T21:51:09.964Z,96.81
2018-10-21T21:54:14.846Z,96.90
2018-10-21T21:57:19.268Z,96.33
2018-10-21T22:00:24.849Z,96.36
2018-10-21T22:03:29.718Z,96.52
2018-10-21T22:06:34.083Z,96.27
2018-10-21T22:09:38.440Z,96.34
2018-10-21T22:12:43.853Z,96.35
2018-10-21T22:15:48.213Z,96.08
2018-10-21T22:18:52.548Z,96.21
2018-10-21T22:21:57.026Z,96.25
2018-10-21T22:25:01.307Z,96.39
2018-10-21T22:28:05.979Z,96.52
2018-10-21T22:31:10.216Z,95.52
2018-10-21T22:34:14.600Z,95.08
2018-10-21T22:37:18.927Z,94.93
2018-10-21T22:40:23.194Z,94.74
2018-10-21T22:43:27.696Z,92.42
2018-10-21T22:46:32.089Z,93.05
2018-10-21T22:49:36.297Z,94.50
2018-10-21T22:52:41.550Z,95.08
2018-10-21T22:55:45.889Z,96.46
2018-10-21T22:58:50.251Z,97.43
2018-10-21T23:01:54.648Z,97.57
2018-10-21T23:04:59.064Z,97.70
2018-10-21T23:08:03.399Z,97.90
2018-10-21T23:11:07.701Z,98.33
2018-10-21T23:14:12.360Z,98.14
2018-10-21T23:17:16.674Z,98.13
2018-10-21T23:20:20.998Z,98.31
2018-10-21T23:23:25.307Z,99.23
2018-10-21T23:26:29.598Z,99.49
2018-10-21T23:29:33.900Z,99.76
2018-10-21T23:32:38.230Z,99.83
2018-10-21T23:35:42.592Z,99.44
2018-10-21T23:38:46.887Z,99.60
2018-10-21T23:41:51.199Z,99.19
2018-10-21T23:44:55.513Z,98.54
2018-10-21T23:47:59.928Z,98.00
2018-10-21T23:51:04.216Z,98.30
2018-10-21T23:54:08.523Z,98.02
2018-10-21T23:57:12.860Z,96.84
